Time;durP1;ratioP1;P1;durP2;ratioP2;P2;SDS_P1;SDS_P2;PMS_P1;PMS_P2;Temp;Humidity;BMP_temperature;BMP_pressure;BME280_temperature;BME280_humidity;BME280_pressure;Samples;Min_cycle;Max_cycle;Signal;HPM_P1;HPM_P2
2023/08/16 00:03:47;;;;;;;1.88;1.77;;;;;;;;;;8258921;28;20196;-60
2023/08/16 00:07:47;;;;;;;1.90;1.75;;;;;;;;;;8258759;28;20520;-60
2023/08/16 00:11:48;;;;;;;2.38;1.67;;;;;;;;;;8264412;28;20040;-60
2023/08/16 00:15:48;;;;;;;5.32;1.90;;;;;;;;;;8264937;28;20040;-60
2023/08/16 00:19:48;;;;;;;1.73;1.63;;;;;;;;;;8266339;28;20946;-59
2023/08/16 00:23:48;;;;;;;2.03;1.83;;;;;;;;;;8266157;28;20034;-60
2023/08/16 00:27:49;;;;;;;2.00;1.70;;;;;;;;;;8263808;28;20067;-60
2023/08/16 00:31:49;;;;;;;3.97;1.90;;;;;;;;;;8262330;28;20046;-60
2023/08/16 00:35:51;;;;;;;3.10;1.70;;;;;;;;;;8261375;28;20355;-60
2023/08/16 00:39:51;;;;;;;2.72;1.70;;;;;;;;;;8268014;28;20040;-60
2023/08/16 00:43:51;;;;;;;2.15;1.63;;;;;;;;;;8262367;28;20124;-60
2023/08/16 00:47:51;;;;;;;2.30;1.77;;;;;;;;;;8262362;28;20037;-60
2023/08/16 00:51:52;;;;;;;4.53;1.90;;;;;;;;;;8265754;28;20073;-59
2023/08/16 00:55:52;;;;;;;2.50;1.80;;;;;;;;;;8261210;28;20025;-60
2023/08/16 00:59:52;;;;;;;1.87;1.77;;;;;;;;;;8266602;28;20041;-60
2023/08/16 01:03:53;;;;;;;1.83;1.73;;;;;;;;;;8263787;28;20400;-60
2023/08/16 01:07:53;;;;;;;1.70;1.60;;;;;;;;;;8261377;28;20030;-60
2023/08/16 01:11:53;;;;;;;3.33;1.85;;;;;;;;;;8264667;28;20037;-60
2023/08/16 01:15:55;;;;;;;2.22;1.80;;;;;;;;;;8265621;28;20045;-60
2023/08/16 01:19:57;;;;;;;1.80;1.70;;;;;;;;;;8266818;28;20037;-60
2023/08/16 01:24:08;;;;;;;4.13;2.10;;;;;;;;;;8261725;28;20047;-60
2023/08/16 01:28:09;;;;;;;3.72;2.10;;;;;;;;;;8264061;28;20040;-60
2023/08/16 01:32:09;;;;;;;3.78;2.00;;;;;;;;;;8271568;28;20033;-59
2023/08/16 01:36:10;;;;;;;2.17;1.70;;;;;;;;;;8272808;28;20037;-60
2023/08/16 01:40:10;;;;;;;2.63;1.90;;;;;;;;;;8268001;28;20277;-58
2023/08/16 01:44:11;;;;;;;5.50;1.88;;;;;;;;;;8276197;28;20030;-60
2023/08/16 01:48:12;;;;;;;4.07;2.17;;;;;;;;;;8267165;28;20041;-60
2023/08/16 01:52:13;;;;;;;3.33;1.80;;;;;;;;;;8272287;28;20030;-60
2023/08/16 01:56:13;;;;;;;2.63;1.80;;;;;;;;;;8266404;28;20025;-60
2023/08/16 02:00:15;;;;;;;1.80;1.70;;;;;;;;;;8268722;28;20057;-61
2023/08/16 02:04:15;;;;;;;2.40;1.80;;;;;;;;;;8269019;28;20080;-59
2023/08/16 02:08:15;;;;;;;3.03;1.90;;;;;;;;;;8266996;28;20544;-60
2023/08/16 02:12:15;;;;;;;3.90;1.80;;;;;;;;;;8270217;28;20254;-60
2023/08/16 02:16:16;;;;;;;2.97;1.95;;;;;;;;;;8267710;28;20751;-60
2023/08/16 02:20:16;;;;;;;3.17;1.83;;;;;;;;;;8271972;28;20107;-60
2023/08/16 02:24:16;;;;;;;2.70;1.80;;;;;;;;;;8266551;28;20366;-60
2023/08/16 02:28:16;;;;;;;2.20;1.93;;;;;;;;;;8265997;28;20021;-59
2023/08/16 02:32:17;;;;;;;4.10;1.90;;;;;;;;;;8267712;28;20295;-60
2023/08/16 02:36:17;;;;;;;2.20;2.00;;;;;;;;;;8268529;28;20017;-60
2023/08/16 02:40:17;;;;;;;3.37;2.13;;;;;;;;;;8266490;28;20026;-60
2023/08/16 02:44:18;;;;;;;2.23;2.10;;;;;;;;;;8266115;28;20770;-60
2023/08/16 02:48:18;;;;;;;4.85;2.10;;;;;;;;;;8267816;28;20038;-60
2023/08/16 02:52:18;;;;;;;2.33;1.92;;;;;;;;;;8267834;28;20026;-59
2023/08/16 02:56:19;;;;;;;2.40;2.20;;;;;;;;;;8267511;28;20122;-60
2023/08/16 03:00:19;;;;;;;2.17;1.98;;;;;;;;;;8268353;28;20021;-59
2023/08/16 03:04:19;;;;;;;2.85;1.80;;;;;;;;;;8266541;28;20025;-60
2023/08/16 03:08:19;;;;;;;2.42;2.00;;;;;;;;;;8269678;28;20529;-60
2023/08/16 03:12:20;;;;;;;4.05;2.05;;;;;;;;;;8268843;28;20033;-60
2023/08/16 03:16:20;;;;;;;2.83;2.50;;;;;;;;;;8265408;28;20029;-60
2023/08/16 03:20:20;;;;;;;4.20;2.80;;;;;;;;;;8270686;28;20101;-60
2023/08/16 03:24:20;;;;;;;6.10;2.50;;;;;;;;;;8268845;28;20733;-60
2023/08/16 03:28:20;;;;;;;2.80;2.53;;;;;;;;;;8265061;28;21596;-60
2023/08/16 03:32:20;;;;;;;3.10;2.90;;;;;;;;;;8267083;28;20049;-60
2023/08/16 03:36:21;;;;;;;4.05;2.88;;;;;;;;;;8264730;28;20046;-60
2023/08/16 03:40:21;;;;;;;4.38;3.17;;;;;;;;;;8266142;28;20025;-60
2023/08/16 03:44:21;;;;;;;3.50;3.20;;;;;;;;;;8265246;28;20018;-60
2023/08/16 03:48:21;;;;;;;4.68;2.90;;;;;;;;;;8267411;28;20034;-60
2023/08/16 03:52:22;;;;;;;3.13;2.72;;;;;;;;;;8267875;28;20036;-60
2023/08/16 03:56:22;;;;;;;2.93;2.63;;;;;;;;;;8264977;28;20025;-60
2023/08/16 04:00:23;;;;;;;3.10;2.90;;;;;;;;;;8264051;28;20275;-59
2023/08/16 04:04:23;;;;;;;3.83;3.30;;;;;;;;;;8264928;28;20026;-60
2023/08/16 04:08:24;;;;;;;4.07;3.10;;;;;;;;;;8269523;28;20378;-60
2023/08/16 04:12:24;;;;;;;8.00;2.90;;;;;;;;;;8268603;28;20099;-60
2023/08/16 04:16:24;;;;;;;3.88;3.30;;;;;;;;;;8263508;28;20042;-60
2023/08/16 04:20:24;;;;;;;4.15;3.80;;;;;;;;;;8264613;28;20041;-60
2023/08/16 04:24:24;;;;;;;4.88;4.25;;;;;;;;;;8261771;28;20053;-60
2023/08/16 04:28:25;;;;;;;3.60;3.30;;;;;;;;;;8266123;28;20067;-60
2023/08/16 04:32:25;;;;;;;3.60;3.17;;;;;;;;;;8263881;28;20084;-60
2023/08/16 04:36:25;;;;;;;3.30;3.00;;;;;;;;;;8264903;28;20083;-60
2023/08/16 04:40:26;;;;;;;5.80;3.45;;;;;;;;;;8264208;28;20030;-60
2023/08/16 04:44:26;;;;;;;3.35;3.05;;;;;;;;;;8266149;28;20029;-60
2023/08/16 04:48:26;;;;;;;3.47;2.97;;;;;;;;;;8266364;28;20184;-61
2023/08/16 04:52:26;;;;;;;5.50;2.70;;;;;;;;;;8264023;28;20040;-60
2023/08/16 04:56:26;;;;;;;6.00;2.50;;;;;;;;;;8263892;28;20017;-60
2023/08/16 05:00:27;;;;;;;5.38;3.10;;;;;;;;;;8265104;28;20034;-60
2023/08/16 05:04:27;;;;;;;3.97;2.67;;;;;;;;;;8261291;28;20988;-60
2023/08/16 05:08:27;;;;;;;3.60;2.67;;;;;;;;;;8263988;28;20029;-61
2023/08/16 05:12:27;;;;;;;5.57;3.00;;;;;;;;;;8261455;28;20025;-60
2023/08/16 05:16:27;;;;;;;3.75;3.28;;;;;;;;;;8259558;28;20331;-60
2023/08/16 05:20:28;;;;;;;4.03;3.63;;;;;;;;;;8264043;28;20029;-61
2023/08/16 05:24:28;;;;;;;5.28;4.40;;;;;;;;;;8265216;28;20021;-60
2023/08/16 05:28:28;;;;;;;4.25;3.85;;;;;;;;;;8267417;28;20029;-60
2023/08/16 05:32:28;;;;;;;6.38;4.43;;;;;;;;;;8258671;28;20057;-61
2023/08/16 05:36:28;;;;;;;5.70;3.90;;;;;;;;;;8263299;28;20117;-61
2023/08/16 05:40:28;;;;;;;4.72;4.32;;;;;;;;;;8260963;28;20834;-61
2023/08/16 05:44:29;;;;;;;18.05;4.10;;;;;;;;;;8263145;28;20009;-60
2023/08/16 05:48:29;;;;;;;4.18;3.50;;;;;;;;;;8265220;28;20034;-61
2023/08/16 05:52:29;;;;;;;5.70;3.45;;;;;;;;;;8262098;28;20018;-61
2023/08/16 05:56:29;;;;;;;3.80;3.50;;;;;;;;;;8265369;28;20132;-61
2023/08/16 06:00:30;;;;;;;11.50;3.80;;;;;;;;;;8265259;28;20037;-61
2023/08/16 06:04:30;;;;;;;28.83;4.63;;;;;;;;;;8265527;28;20018;-61
2023/08/16 06:08:30;;;;;;;42.13;4.50;;;;;;;;;;8261556;28;20284;-61
2023/08/16 06:12:30;;;;;;;5.55;3.55;;;;;;;;;;8261782;28;20502;-61
2023/08/16 06:16:31;;;;;;;28.45;4.30;;;;;;;;;;8265434;28;20088;-61
2023/08/16 06:20:31;;;;;;;21.08;4.60;;;;;;;;;;8267167;28;20025;-61
2023/08/16 06:24:33;;;;;;;5.30;4.80;;;;;;;;;;8262365;28;20026;-62
2023/08/16 06:28:33;;;;;;;7.78;4.03;;;;;;;;;;8266772;28;20033;-61
2023/08/16 06:32:34;;;;;;;78.82;5.43;;;;;;;;;;8267248;28;20349;-61
2023/08/16 06:36:35;;;;;;;5.45;4.15;;;;;;;;;;8263191;28;20033;-61
2023/08/16 06:40:35;;;;;;;11.70;4.40;;;;;;;;;;8265904;28;20022;-61
2023/08/16 06:44:35;;;;;;;111.65;6.25;;;;;;;;;;8266006;28;20135;-61
2023/08/16 06:48:36;;;;;;;97.43;6.35;;;;;;;;;;8266877;28;20034;-61
2023/08/16 06:52:36;;;;;;;233.25;10.68;;;;;;;;;;8265674;28;20053;-61
2023/08/16 06:56:36;;;;;;;60.85;8.10;;;;;;;;;;8265870;28;20029;-61
2023/08/16 07:00:37;;;;;;;126.47;9.13;;;;;;;;;;8263566;28;20042;-61
2023/08/16 07:04:38;;;;;;;52.42;9.98;;;;;;;;;;8267479;28;20026;-61
2023/08/16 07:08:38;;;;;;;172.63;11.75;;;;;;;;;;8265100;28;20033;-61
2023/08/16 07:12:39;;;;;;;113.83;10.83;;;;;;;;;;8264245;28;20030;-61
2023/08/16 07:16:39;;;;;;;160.37;11.13;;;;;;;;;;8264141;28;20284;-61
2023/08/16 07:20:40;;;;;;;84.75;10.25;;;;;;;;;;8267276;28;20140;-61
2023/08/16 07:24:40;;;;;;;16.77;10.60;;;;;;;;;;8264084;28;20166;-61
2023/08/16 07:28:40;;;;;;;14.67;8.03;;;;;;;;;;8262146;28;20036;-62
2023/08/16 07:32:40;;;;;;;41.35;8.95;;;;;;;;;;8264098;28;20130;-61
2023/08/16 07:36:40;;;;;;;22.50;8.15;;;;;;;;;;8265082;28;20220;-61
2023/08/16 07:40:46;;;;;;;117.53;10.68;;;;;;;;;;8267010;28;20142;-61
2023/08/16 07:44:46;;;;;;;47.63;8.95;;;;;;;;;;8265231;28;20022;-61
2023/08/16 07:48:46;;;;;;;28.75;8.38;;;;;;;;;;8268132;28;20462;-61
2023/08/16 07:52:46;;;;;;;20.17;8.00;;;;;;;;;;8269076;28;20606;-61
2023/08/16 07:56:46;;;;;;;63.50;9.07;;;;;;;;;;8266306;28;20028;-62
2023/08/16 08:00:51;;;;;;;67.45;9.43;;;;;;;;;;8267534;28;20311;-61
2023/08/16 08:04:52;;;;;;;13.30;8.30;;;;;;;;;;8267747;28;20100;-61
2023/08/16 08:08:52;;;;;;;13.55;8.27;;;;;;;;;;8269104;28;20068;-61
2023/08/16 08:12:52;;;;;;;11.25;8.00;;;;;;;;;;8263934;28;20096;-61
2023/08/16 08:16:53;;;;;;;12.20;7.93;;;;;;;;;;8264433;28;20100;-62
2023/08/16 08:20:55;;;;;;;11.27;8.48;;;;;;;;;;8267339;28;20026;-61
2023/08/16 08:24:55;;;;;;;9.93;7.68;;;;;;;;;;8264229;28;20156;-62
2023/08/16 08:28:56;;;;;;;9.85;7.93;;;;;;;;;;8264186;28;20065;-61
2023/08/16 08:32:58;;;;;;;12.93;8.77;;;;;;;;;;8256724;28;20030;-61
2023/08/16 08:36:59;;;;;;;12.57;9.13;;;;;;;;;;8263884;28;20551;-61
2023/08/16 08:41:00;;;;;;;11.88;8.50;;;;;;;;;;8265711;28;20109;-62
2023/08/16 08:45:01;;;;;;;13.85;8.85;;;;;;;;;;8262491;28;20086;-61
2023/08/16 08:49:02;;;;;;;13.00;9.45;;;;;;;;;;8260085;28;20482;-61
2023/08/16 08:53:02;;;;;;;9.70;7.75;;;;;;;;;;8264457;28;20719;-61
2023/08/16 08:57:03;;;;;;;11.15;8.30;;;;;;;;;;8262270;28;20583;-62
2023/08/16 09:01:04;;;;;;;10.20;8.45;;;;;;;;;;8260565;28;20069;-62
2023/08/16 09:05:07;;;;;;;9.98;8.10;;;;;;;;;;8266284;28;20025;-61
2023/08/16 09:09:07;;;;;;;;;;;;;;;;;;8262550;28;20026;-61
2023/08/16 09:13:09;;;;;;;9.60;7.53;;;;;;;;;;8262431;28;19925;-61
2023/08/16 09:17:10;;;;;;;10.13;8.00;;;;;;;;;;8263214;28;20029;-62
2023/08/16 09:21:14;;;;;;;10.40;8.10;;;;;;;;;;8265581;28;20459;-62
2023/08/16 09:25:14;;;;;;;10.77;7.47;;;;;;;;;;8260969;28;20160;-61
2023/08/16 09:29:17;;;;;;;9.27;6.93;;;;;;;;;;8261056;28;20049;-62
2023/08/16 09:33:17;;;;;;;10.88;7.80;;;;;;;;;;8260383;28;20037;-62
2023/08/16 09:37:18;;;;;;;8.65;6.53;;;;;;;;;;8262274;28;20759;-62
2023/08/16 09:41:19;;;;;;;8.25;7.30;;;;;;;;;;8265118;28;20036;-62
2023/08/16 09:45:36;;;;;;;8.38;6.47;;;;;;;;;;8259829;28;20221;-62
2023/08/16 09:49:38;;;;;;;7.70;6.88;;;;;;;;;;8261942;28;20029;-62
2023/08/16 09:53:47;;;;;;;8.07;6.40;;;;;;;;;;8266566;28;20490;-62
2023/08/16 09:57:47;;;;;;;8.10;6.72;;;;;;;;;;8268332;28;20026;-62
2023/08/16 10:01:47;;;;;;;8.38;6.45;;;;;;;;;;8265776;28;20042;-62
2023/08/16 10:05:49;;;;;;;7.03;6.18;;;;;;;;;;8282670;28;20022;-62
2023/08/16 10:09:51;;;;;;;9.02;7.38;;;;;;;;;;8268999;28;20470;-62
2023/08/16 10:13:51;;;;;;;8.60;7.30;;;;;;;;;;8269381;28;20043;-61
2023/08/16 10:17:52;;;;;;;9.57;7.10;;;;;;;;;;8261808;28;20769;-62
2023/08/16 10:21:53;;;;;;;6.75;6.03;;;;;;;;;;8266718;28;20033;-62
2023/08/16 10:25:57;;;;;;;7.15;5.63;;;;;;;;;;8269095;28;20033;-64
2023/08/16 10:29:59;;;;;;;7.70;5.75;;;;;;;;;;8269532;28;20022;-62
2023/08/16 10:34:00;;;;;;;5.80;5.18;;;;;;;;;;8268279;28;20041;-62
2023/08/16 10:38:00;;;;;;;7.10;5.63;;;;;;;;;;8266156;28;21135;-62
2023/08/16 10:42:05;;;;;;;6.38;5.22;;;;;;;;;;8268372;28;20048;-62
2023/08/16 10:46:05;;;;;;;6.03;4.63;;;;;;;;;;8266489;28;20155;-62
2023/08/16 10:50:06;;;;;;;5.20;4.70;;;;;;;;;;8265606;28;20033;-62
2023/08/16 10:54:06;;;;;;;5.65;5.00;;;;;;;;;;8267093;28;20768;-62
2023/08/16 10:58:06;;;;;;;5.75;5.25;;;;;;;;;;8267042;28;20695;-62
2023/08/16 11:02:14;;;;;;;5.68;4.68;;;;;;;;;;8265517;28;20033;-62
2023/08/16 11:06:15;;;;;;;5.40;4.45;;;;;;;;;;8269444;28;20442;-62
2023/08/16 11:10:15;;;;;;;7.10;4.50;;;;;;;;;;8268526;28;20030;-62
2023/08/16 11:14:17;;;;;;;6.10;4.93;;;;;;;;;;8267902;28;20096;-62
2023/08/16 11:18:30;;;;;;;6.97;5.20;;;;;;;;;;8269788;28;20034;-62
2023/08/16 11:22:31;;;;;;;5.18;4.45;;;;;;;;;;8267865;28;20017;-62
2023/08/16 11:26:38;;;;;;;5.43;4.25;;;;;;;;;;8260779;28;20021;-62
2023/08/16 11:30:38;;;;;;;6.50;3.70;;;;;;;;;;8266585;28;20152;-62
2023/08/16 11:34:39;;;;;;;4.43;4.03;;;;;;;;;;8261922;28;20977;-62
2023/08/16 11:38:39;;;;;;;5.47;4.30;;;;;;;;;;8265228;28;20046;-62
2023/08/16 11:42:39;;;;;;;6.10;4.10;;;;;;;;;;8266925;28;20025;-62
2023/08/16 11:46:41;;;;;;;4.72;4.25;;;;;;;;;;8267946;28;21237;-62
2023/08/16 11:50:42;;;;;;;5.60;3.75;;;;;;;;;;8269255;28;20032;-62
2023/08/16 11:54:42;;;;;;;6.68;4.10;;;;;;;;;;8266812;28;20612;-62
2023/08/16 11:58:46;;;;;;;6.33;3.93;;;;;;;;;;8270984;28;20022;-62
2023/08/16 12:02:46;;;;;;;5.15;3.97;;;;;;;;;;8265610;28;20061;-62
2023/08/16 12:06:47;;;;;;;3.70;3.40;;;;;;;;;;8266790;28;20487;-62
2023/08/16 12:10:50;;;;;;;3.78;3.45;;;;;;;;;;8260924;28;20034;-62
2023/08/16 12:14:51;;;;;;;5.35;3.60;;;;;;;;;;8265994;28;20021;-62
2023/08/16 12:18:51;;;;;;;4.28;3.13;;;;;;;;;;8267767;28;20494;-62
2023/08/16 12:22:52;;;;;;;5.40;3.33;;;;;;;;;;8265900;28;20029;-62
2023/08/16 12:26:52;;;;;;;4.17;2.83;;;;;;;;;;8264646;28;20143;-61
2023/08/16 12:30:53;;;;;;;3.63;3.20;;;;;;;;;;8264795;28;20388;-62
2023/08/16 12:34:53;;;;;;;3.50;3.20;;;;;;;;;;8261283;28;20028;-62
2023/08/16 12:38:53;;;;;;;2.53;2.33;;;;;;;;;;8267995;28;20026;-62
2023/08/16 12:42:54;;;;;;;4.30;2.58;;;;;;;;;;8266901;28;20026;-62
2023/08/16 12:46:54;;;;;;;3.60;2.65;;;;;;;;;;8268388;28;20061;-63
2023/08/16 12:50:54;;;;;;;3.33;2.47;;;;;;;;;;8267252;28;20045;-62
2023/08/16 12:54:55;;;;;;;3.20;2.67;;;;;;;;;;8266994;28;20125;-62
2023/08/16 12:58:55;;;;;;;6.20;2.80;;;;;;;;;;8268912;28;20824;-61
2023/08/16 13:02:57;;;;;;;2.58;2.38;;;;;;;;;;8264100;28;20045;-62
2023/08/16 13:06:59;;;;;;;4.45;2.30;;;;;;;;;;8266900;28;20013;-62
2023/08/16 13:10:59;;;;;;;3.13;2.50;;;;;;;;;;8263301;28;20905;-62
2023/08/16 13:15:00;;;;;;;4.07;2.78;;;;;;;;;;8265699;28;20038;-63
2023/08/16 13:19:00;;;;;;;3.17;2.67;;;;;;;;;;8262567;28;20179;-62
2023/08/16 13:23:00;;;;;;;3.53;2.33;;;;;;;;;;8261884;28;20025;-62
2023/08/16 13:27:01;;;;;;;5.50;2.63;;;;;;;;;;8264582;28;20092;-62
2023/08/16 13:31:01;;;;;;;3.72;2.70;;;;;;;;;;8262578;28;20140;-62
2023/08/16 13:35:01;;;;;;;2.88;2.40;;;;;;;;;;8263310;28;20088;-62
2023/08/16 13:39:02;;;;;;;3.37;2.60;;;;;;;;;;8264383;28;20037;-62
2023/08/16 13:43:02;;;;;;;2.58;2.38;;;;;;;;;;8262492;28;20025;-62
2023/08/16 13:47:03;;;;;;;3.17;2.37;;;;;;;;;;8262070;28;20514;-62
2023/08/16 13:51:04;;;;;;;3.25;2.38;;;;;;;;;;8263484;28;20284;-62
2023/08/16 13:55:04;;;;;;;2.38;2.13;;;;;;;;;;8262313;28;20056;-62
2023/08/16 13:59:04;;;;;;;3.97;2.28;;;;;;;;;;8262421;28;20501;-62
2023/08/16 14:03:04;;;;;;;2.75;2.08;;;;;;;;;;8263411;28;20030;-62
2023/08/16 14:07:05;;;;;;;2.97;2.30;;;;;;;;;;8259075;28;20046;-62
2023/08/16 14:11:05;;;;;;;2.38;2.15;;;;;;;;;;8264031;28;20954;-62
2023/08/16 14:15:06;;;;;;;2.53;2.28;;;;;;;;;;8261473;28;20034;-62
2023/08/16 14:19:06;;;;;;;2.75;2.15;;;;;;;;;;8259261;28;20024;-61
2023/08/16 14:23:06;;;;;;;4.03;2.10;;;;;;;;;;8258560;28;20026;-62
2023/08/16 14:27:06;;;;;;;2.38;2.17;;;;;;;;;;8261047;28;20037;-61
2023/08/16 14:31:07;;;;;;;2.78;2.20;;;;;;;;;;8261296;28;20050;-61
2023/08/16 14:35:07;;;;;;;2.60;2.40;;;;;;;;;;8264870;28;20021;-62
2023/08/16 14:39:08;;;;;;;3.88;2.35;;;;;;;;;;8267840;28;20040;-62
2023/08/16 14:43:08;;;;;;;2.80;2.28;;;;;;;;;;8270132;28;20021;-62
2023/08/16 14:47:08;;;;;;;2.22;1.98;;;;;;;;;;8270020;28;20575;-62
2023/08/16 14:51:09;;;;;;;2.58;2.05;;;;;;;;;;8269204;28;20737;-62
2023/08/16 14:55:09;;;;;;;3.25;2.30;;;;;;;;;;8268366;28;20025;-62
2023/08/16 14:59:10;;;;;;;2.40;2.20;;;;;;;;;;8265009;28;20029;-62
2023/08/16 15:03:10;;;;;;;4.57;2.10;;;;;;;;;;8264477;28;20042;-62
2023/08/16 15:07:10;;;;;;;4.25;2.35;;;;;;;;;;8260571;28;21535;-62
2023/08/16 15:11:15;;;;;;;2.30;2.10;;;;;;;;;;8261775;28;20041;-63
2023/08/16 15:15:15;;;;;;;4.65;2.22;;;;;;;;;;8265710;28;20029;-63
2023/08/16 15:19:16;;;;;;;2.50;2.28;;;;;;;;;;8264130;28;20041;-62
2023/08/16 15:23:18;;;;;;;3.13;2.40;;;;;;;;;;8263785;28;20034;-63
2023/08/16 15:27:18;;;;;;;2.58;2.30;;;;;;;;;;8264713;28;20037;-62
2023/08/16 15:31:19;;;;;;;2.22;2.00;;;;;;;;;;8264381;28;20045;-62
2023/08/16 15:35:20;;;;;;;2.80;2.30;;;;;;;;;;8265977;28;20096;-62
2023/08/16 15:39:20;;;;;;;3.63;2.10;;;;;;;;;;8261149;28;20135;-62
2023/08/16 15:43:20;;;;;;;3.95;2.13;;;;;;;;;;8263126;28;20030;-62
2023/08/16 15:47:21;;;;;;;2.65;2.33;;;;;;;;;;8262121;28;20038;-63
2023/08/16 15:51:21;;;;;;;2.90;2.40;;;;;;;;;;8266815;28;20368;-62
2023/08/16 15:55:21;;;;;;;4.13;2.20;;;;;;;;;;8260713;28;20033;-62
2023/08/16 15:59:21;;;;;;;4.57;2.13;;;;;;;;;;8264988;28;20032;-62
2023/08/16 16:03:22;;;;;;;4.43;2.40;;;;;;;;;;8259268;28;20045;-62
2023/08/16 16:07:22;;;;;;;2.60;2.40;;;;;;;;;;8257076;28;20686;-63
2023/08/16 16:11:27;;;;;;;2.58;2.33;;;;;;;;;;8263423;28;20029;-62
2023/08/16 16:15:28;;;;;;;2.78;2.50;;;;;;;;;;8263219;28;20038;-62
2023/08/16 16:19:28;;;;;;;4.00;2.80;;;;;;;;;;8260572;28;20117;-62
2023/08/16 16:23:28;;;;;;;4.23;2.73;;;;;;;;;;8261133;28;20142;-62
2023/08/16 16:27:28;;;;;;;3.60;2.70;;;;;;;;;;8265448;28;20021;-62
2023/08/16 16:31:29;;;;;;;3.95;2.58;;;;;;;;;;8261371;28;20046;-62
2023/08/16 16:35:29;;;;;;;5.00;2.63;;;;;;;;;;8262744;28;20440;-62
2023/08/16 16:39:29;;;;;;;4.00;2.70;;;;;;;;;;8262211;28;20748;-62
2023/08/16 16:43:29;;;;;;;2.92;2.63;;;;;;;;;;8261271;28;20029;-61
2023/08/16 16:47:30;;;;;;;4.23;2.73;;;;;;;;;;8259080;28;20124;-61
2023/08/16 16:51:31;;;;;;;2.95;2.70;;;;;;;;;;8263483;28;20643;-61
2023/08/16 16:55:31;;;;;;;3.95;2.92;;;;;;;;;;8263407;28;20022;-61
2023/08/16 16:59:31;;;;;;;3.58;2.97;;;;;;;;;;8265823;28;20033;-62
2023/08/16 17:03:31;;;;;;;3.43;2.63;;;;;;;;;;8262137;28;20038;-61
2023/08/16 17:07:33;;;;;;;4.15;2.55;;;;;;;;;;8261925;28;20098;-61
2023/08/16 17:11:33;;;;;;;5.65;3.13;;;;;;;;;;8264435;28;20401;-61
2023/08/16 17:15:36;;;;;;;4.38;3.10;;;;;;;;;;8261002;28;20030;-61
2023/08/16 17:19:37;;;;;;;5.47;2.80;;;;;;;;;;8263235;28;20032;-62
2023/08/16 17:23:37;;;;;;;3.33;2.90;;;;;;;;;;8263187;28;20030;-61
2023/08/16 17:27:37;;;;;;;4.25;3.10;;;;;;;;;;8258121;28;20037;-61
2023/08/16 17:31:37;;;;;;;4.53;3.20;;;;;;;;;;8259839;28;20159;-62
2023/08/16 17:35:38;;;;;;;3.92;3.13;;;;;;;;;;8261947;28;20026;-61
2023/08/16 17:39:38;;;;;;;3.40;3.08;;;;;;;;;;8259586;28;20068;-62
2023/08/16 17:43:39;;;;;;;11.55;4.35;;;;;;;;;;8259160;28;20050;-61
2023/08/16 17:47:39;;;;;;;6.50;3.33;;;;;;;;;;8261964;28;20033;-61
2023/08/16 17:51:40;;;;;;;11.05;3.42;;;;;;;;;;8262063;28;20735;-61
2023/08/16 17:55:40;;;;;;;6.45;3.42;;;;;;;;;;8258942;28;20101;-61
2023/08/16 17:59:40;;;;;;;9.23;4.10;;;;;;;;;;8261047;28;20029;-61
2023/08/16 18:03:40;;;;;;;12.48;2.90;;;;;;;;;;8258129;28;20792;-60
2023/08/16 18:07:40;;;;;;;14.00;2.80;;;;;;;;;;8257925;28;20128;-60
2023/08/16 18:11:41;;;;;;;9.60;2.10;;;;;;;;;;8266405;28;20013;-59
2023/08/16 18:15:41;;;;;;;16.63;2.97;;;;;;;;;;8260404;28;20041;-59
2023/08/16 18:19:41;;;;;;;3.88;2.03;;;;;;;;;;8262694;28;20126;-61
2023/08/16 18:23:42;;;;;;;3.00;1.85;;;;;;;;;;8266822;28;20026;-61
2023/08/16 18:27:42;;;;;;;2.88;1.67;;;;;;;;;;8265686;28;20053;-61
2023/08/16 18:31:42;;;;;;;3.45;1.80;;;;;;;;;;8260199;28;20052;-61
2023/08/16 18:35:42;;;;;;;7.10;1.80;;;;;;;;;;8268235;28;20087;-61
2023/08/16 18:39:42;;;;;;;4.93;1.90;;;;;;;;;;8265193;28;20487;-61
2023/08/16 18:43:43;;;;;;;3.65;1.70;;;;;;;;;;8264673;28;20026;-61
2023/08/16 18:47:43;;;;;;;4.95;2.33;;;;;;;;;;8260525;28;20042;-61
2023/08/16 18:51:43;;;;;;;8.43;2.00;;;;;;;;;;8266323;28;20144;-61
2023/08/16 18:55:43;;;;;;;4.15;2.10;;;;;;;;;;8269222;28;20021;-61
2023/08/16 18:59:43;;;;;;;5.28;1.80;;;;;;;;;;8272435;28;20060;-61
2023/08/16 19:03:44;;;;;;;3.15;1.70;;;;;;;;;;8269307;28;20132;-61
2023/08/16 19:07:44;;;;;;;5.77;1.70;;;;;;;;;;8268491;28;20818;-60
2023/08/16 19:11:44;;;;;;;6.05;1.70;;;;;;;;;;8270299;28;20470;-62
2023/08/16 19:15:47;;;;;;;3.13;1.65;;;;;;;;;;8265147;28;20148;-61
2023/08/16 19:19:47;;;;;;;3.03;1.70;;;;;;;;;;8263125;28;20715;-61
2023/08/16 19:23:47;;;;;;;5.55;1.80;;;;;;;;;;8262445;28;20037;-61
2023/08/16 19:27:48;;;;;;;2.47;1.40;;;;;;;;;;8263082;28;20040;-61
2023/08/16 19:31:48;;;;;;;4.27;1.40;;;;;;;;;;8263077;28;20041;-61
2023/08/16 19:35:48;;;;;;;4.07;1.60;;;;;;;;;;8261033;28;20292;-61
2023/08/16 19:39:49;;;;;;;4.10;1.50;;;;;;;;;;8266813;28;21208;-61
2023/08/16 19:43:49;;;;;;;2.03;1.45;;;;;;;;;;8261143;28;20297;-61
2023/08/16 19:47:49;;;;;;;6.50;1.90;;;;;;;;;;8264699;28;20477;-61
2023/08/16 19:51:49;;;;;;;4.00;2.10;;;;;;;;;;8263573;28;20442;-61
2023/08/16 19:55:53;;;;;;;2.88;1.60;;;;;;;;;;8263199;28;20078;-61
2023/08/16 19:59:53;;;;;;;1.80;1.10;;;;;;;;;;8261621;28;20648;-61
2023/08/16 20:03:54;;;;;;;1.40;1.30;;;;;;;;;;8261618;28;20046;-61
2023/08/16 20:07:54;;;;;;;2.10;1.17;;;;;;;;;;8263099;28;20029;-61
2023/08/16 20:11:54;;;;;;;1.55;1.23;;;;;;;;;;8259544;28;21065;-61
2023/08/16 20:15:54;;;;;;;3.00;1.30;;;;;;;;;;8262755;28;20033;-61
2023/08/16 20:19:54;;;;;;;1.30;1.20;;;;;;;;;;8260996;28;21188;-61
2023/08/16 20:23:56;;;;;;;3.28;1.20;;;;;;;;;;8267108;28;20036;-62
2023/08/16 20:27:57;;;;;;;2.50;1.33;;;;;;;;;;8268007;28;20032;-60
2023/08/16 20:31:57;;;;;;;1.42;1.25;;;;;;;;;;8264672;28;20459;-61
2023/08/16 20:35:57;;;;;;;1.80;1.23;;;;;;;;;;8265577;28;20083;-61
2023/08/16 20:39:58;;;;;;;2.80;1.33;;;;;;;;;;8268285;28;20032;-61
2023/08/16 20:43:58;;;;;;;2.03;1.20;;;;;;;;;;8266699;28;20033;-61
2023/08/16 20:47:58;;;;;;;3.42;1.40;;;;;;;;;;8266771;28;20045;-61
2023/08/16 20:51:58;;;;;;;2.73;1.23;;;;;;;;;;8266167;28;20376;-61
2023/08/16 20:55:58;;;;;;;1.73;1.20;;;;;;;;;;8265550;28;20026;-61
2023/08/16 20:59:59;;;;;;;1.52;1.20;;;;;;;;;;8270895;28;20508;-61
2023/08/16 21:03:59;;;;;;;3.75;1.17;;;;;;;;;;8266774;28;20038;-61
2023/08/16 21:07:59;;;;;;;2.17;1.40;;;;;;;;;;8265426;28;20040;-61
2023/08/16 21:11:59;;;;;;;2.05;1.30;;;;;;;;;;8268674;28;20095;-61
2023/08/16 21:15:59;;;;;;;2.85;1.40;;;;;;;;;;8267291;28;20095;-61
2023/08/16 21:20:00;;;;;;;2.17;1.00;;;;;;;;;;8264933;28;20029;-61
2023/08/16 21:24:00;;;;;;;2.00;1.33;;;;;;;;;;8265915;28;20107;-61
2023/08/16 21:28:00;;;;;;;2.70;1.30;;;;;;;;;;8266322;28;20030;-62
2023/08/16 21:32:00;;;;;;;1.25;1.10;;;;;;;;;;8263254;28;20042;-61
2023/08/16 21:36:00;;;;;;;2.33;1.40;;;;;;;;;;8265722;28;20041;-61
2023/08/16 21:40:00;;;;;;;1.88;1.20;;;;;;;;;;8260286;28;20731;-61
2023/08/16 21:44:01;;;;;;;2.53;1.35;;;;;;;;;;8260868;28;20033;-61
2023/08/16 21:48:01;;;;;;;1.52;1.30;;;;;;;;;;8263851;28;20033;-61
2023/08/16 21:52:02;;;;;;;2.15;1.30;;;;;;;;;;8268161;28;20445;-62
2023/08/16 21:56:06;;;;;;;1.80;1.20;;;;;;;;;;8270733;28;20022;-61
2023/08/16 22:00:07;;;;;;;1.30;1.20;;;;;;;;;;8267069;28;20036;-61
2023/08/16 22:04:07;;;;;;;2.75;1.25;;;;;;;;;;8267603;28;20113;-60
2023/08/16 22:08:07;;;;;;;1.42;1.30;;;;;;;;;;8269977;28;20057;-60
2023/08/16 22:12:08;;;;;;;1.17;1.10;;;;;;;;;;8267445;28;20033;-61
2023/08/16 22:16:08;;;;;;;2.33;1.40;;;;;;;;;;8267387;28;20912;-61
2023/08/16 22:20:08;;;;;;;7.38;1.40;;;;;;;;;;8265884;28;20038;-60
2023/08/16 22:24:10;;;;;;;4.20;1.45;;;;;;;;;;8269708;28;20762;-60
2023/08/16 22:28:11;;;;;;;3.05;1.08;;;;;;;;;;8266113;28;20021;-61
2023/08/16 22:32:11;;;;;;;2.63;1.33;;;;;;;;;;8266678;28;20045;-61
2023/08/16 22:36:11;;;;;;;2.10;1.40;;;;;;;;;;8264313;28;20034;-61
2023/08/16 22:40:11;;;;;;;2.47;1.45;;;;;;;;;;8264771;28;20030;-61
2023/08/16 22:44:12;;;;;;;2.95;0.90;;;;;;;;;;8271919;28;20083;-61
2023/08/16 22:48:12;;;;;;;2.35;1.20;;;;;;;;;;8269582;28;20790;-61
2023/08/16 22:52:12;;;;;;;1.75;1.20;;;;;;;;;;8266573;28;20022;-61
2023/08/16 22:56:12;;;;;;;1.00;1.00;;;;;;;;;;8265761;28;20032;-61
2023/08/16 23:00:13;;;;;;;1.77;1.27;;;;;;;;;;8258765;28;20128;-62
2023/08/16 23:04:13;;;;;;;2.85;1.33;;;;;;;;;;8231100;28;20030;-61
2023/08/16 23:08:13;;;;;;;3.05;1.42;;;;;;;;;;8232572;28;20554;-61
2023/08/16 23:12:13;;;;;;;1.75;1.35;;;;;;;;;;8235008;28;20069;-61
2023/08/16 23:16:14;;;;;;;6.15;1.25;;;;;;;;;;8233540;28;20058;-61
2023/08/16 23:20:14;;;;;;;3.13;1.10;;;;;;;;;;8230871;28;20029;-61
2023/08/16 23:24:14;;;;;;;4.50;1.10;;;;;;;;;;8231011;28;20043;-61
2023/08/16 23:28:14;;;;;;;4.15;1.00;;;;;;;;;;8237667;28;20038;-61
2023/08/16 23:32:15;;;;;;;3.43;1.03;;;;;;;;;;8234857;28;20866;-61
2023/08/16 23:36:15;;;;;;;1.30;1.02;;;;;;;;;;8236195;28;20076;-61
2023/08/16 23:40:15;;;;;;;4.72;1.50;;;;;;;;;;8236266;28;20030;-61
2023/08/16 23:44:15;;;;;;;5.13;1.85;;;;;;;;;;8235942;28;20026;-61
2023/08/16 23:48:15;;;;;;;5.13;2.63;;;;;;;;;;8259468;28;20144;-61
2023/08/16 23:52:16;;;;;;;3.97;1.90;;;;;;;;;;8269023;28;20021;-61
2023/08/16 23:56:17;;;;;;;3.25;2.42;;;;;;;;;;8269547;28;20017;-61
